Time;durP1;ratioP1;P1;durP2;ratioP2;P2;SDS_P1;SDS_P2;PMS_P1;PMS_P2;Temp;Humidity;BMP_temperature;BMP_pressure;BME280_temperature;BME280_humidity;BME280_pressure;Samples;Min_cycle;Max_cycle;Signal;HPM_P1;HPM_P2
2022/05/13 00:01:45;;;;;;;9.82;4.55;;;13.90;99.90;;;;;;5040420;28;20228;-80
2022/05/13 00:04:12;;;;;;;8.55;4.57;;;13.90;99.90;;;;;;5039043;28;20200;-80
2022/05/13 00:06:39;;;;;;;9.77;4.63;;;13.90;99.90;;;;;;5041662;28;20260;-79
2022/05/13 00:09:07;;;;;;;8.80;4.70;;;13.70;99.90;;;;;;5048592;28;20196;-79
2022/05/13 00:11:34;;;;;;;11.02;4.78;;;13.70;99.90;;;;;;5039647;28;20275;-81
2022/05/13 00:14:01;;;;;;;7.32;4.07;;;13.70;99.90;;;;;;5042135;28;20232;-81
2022/05/13 00:16:28;;;;;;;6.25;4.68;;;13.70;99.90;;;;;;5044956;28;20321;-81
2022/05/13 00:18:55;;;;;;;5.28;4.55;;;13.60;99.90;;;;;;5042682;28;20737;-81
2022/05/13 00:21:23;;;;;;;12.57;4.55;;;13.50;99.90;;;;;;5035034;28;20303;-78
2022/05/13 00:23:49;;;;;;;9.30;4.72;;;13.50;99.90;;;;;;5049634;28;20234;-79
2022/05/13 00:26:18;;;;;;;11.38;5.25;;;13.50;99.90;;;;;;5040081;28;20242;-79
2022/05/13 00:28:45;;;;;;;11.30;4.72;;;13.40;99.90;;;;;;5035192;28;20238;-81
2022/05/13 00:31:12;;;;;;;9.40;4.60;;;13.30;99.90;;;;;;5040228;28;20238;-82
2022/05/13 00:33:39;;;;;;;8.18;4.88;;;13.20;99.90;;;;;;5040782;28;20294;-80
2022/05/13 00:36:07;;;;;;;8.32;4.95;;;13.20;99.90;;;;;;5040605;28;20317;-81
2022/05/13 00:38:33;;;;;;;13.00;4.40;;;13.20;99.90;;;;;;5040624;28;20302;-81
2022/05/13 00:41:01;;;;;;;7.18;4.85;;;13.10;99.90;;;;;;5039459;28;20295;-80
2022/05/13 00:43:51;;;;;;;9.55;5.13;;;13.00;99.90;;;;;;5040035;28;20215;-81
2022/05/13 00:46:18;;;;;;;8.00;5.30;;;13.10;99.90;;;;;;5040566;28;20684;-81
2022/05/13 00:48:46;;;;;;;7.80;4.03;;;13.00;99.90;;;;;;5035408;28;20327;-80
2022/05/13 00:51:17;;;;;;;7.07;4.00;;;13.00;99.90;;;;;;5045043;28;20188;-80
2022/05/13 00:53:45;;;;;;;6.68;4.00;;;13.00;99.90;;;;;;5040862;28;20213;-80
2022/05/13 00:56:12;;;;;;;8.38;4.20;;;12.90;99.90;;;;;;5043508;28;20254;-81
2022/05/13 00:58:46;;;;;;;8.07;4.75;;;12.90;99.90;;;;;;5039287;28;20246;-80
2022/05/13 01:01:15;;;;;;;6.15;4.50;;;12.90;99.90;;;;;;5044972;28;20294;-79
2022/05/13 01:03:44;;;;;;;6.38;5.10;;;12.90;99.90;;;;;;5044573;28;20834;-80
2022/05/13 01:06:15;;;;;;;7.47;4.57;;;12.90;99.90;;;;;;5045258;28;20227;-79
2022/05/13 01:08:42;;;;;;;8.25;4.80;;;12.70;99.90;;;;;;5049804;28;20209;-80
2022/05/13 01:11:13;;;;;;;7.22;4.35;;;12.70;99.90;;;;;;5045077;28;20266;-81
2022/05/13 01:13:44;;;;;;;8.07;5.65;;;12.70;99.90;;;;;;5045986;28;20287;-80
2022/05/13 01:16:11;;;;;;;7.55;5.35;;;12.70;99.90;;;;;;5045549;28;20595;-80
2022/05/13 01:18:40;;;;;;;7.30;5.55;;;12.80;99.90;;;;;;5056632;28;20195;-81
2022/05/13 01:21:11;;;;;;;10.45;4.75;;;12.70;99.90;;;;;;5057886;28;20214;-82
2022/05/13 01:23:42;;;;;;;6.72;4.25;;;12.80;99.90;;;;;;5058846;28;20263;-79
2022/05/13 01:26:12;;;;;;;8.65;5.18;;;12.70;99.90;;;;;;5057007;28;20237;-79
2022/05/13 01:28:43;;;;;;;9.80;5.15;;;12.80;99.90;;;;;;5056786;28;20209;-80
2022/05/13 01:31:12;;;;;;;7.85;4.40;;;12.70;99.90;;;;;;5043853;28;20230;-81
2022/05/13 01:33:41;;;;;;;7.47;4.53;;;12.70;99.90;;;;;;5044482;28;20259;-82
2022/05/13 01:36:12;;;;;;;11.35;5.20;;;12.70;99.90;;;;;;5046906;28;20253;-80
2022/05/13 01:38:42;;;;;;;6.65;4.78;;;12.70;99.90;;;;;;5054670;28;20204;-79
2022/05/13 01:41:10;;;;;;;8.65;4.53;;;12.70;99.90;;;;;;5050962;28;20211;-80
2022/05/13 01:43:39;;;;;;;10.88;4.88;;;12.60;99.90;;;;;;5060558;28;20221;-80
2022/05/13 01:46:07;;;;;;;7.47;4.55;;;12.60;99.90;;;;;;5052465;28;20986;-80
2022/05/13 01:48:35;;;;;;;6.03;4.55;;;12.50;99.90;;;;;;5052386;28;20213;-80
2022/05/13 01:51:02;;;;;;;10.23;5.60;;;12.50;99.90;;;;;;5057186;28;20210;-79
2022/05/13 01:53:29;;;;;;;10.15;4.88;;;12.40;99.90;;;;;;5052556;28;20606;-79
2022/05/13 01:55:58;;;;;;;9.55;4.80;;;12.40;99.90;;;;;;5050115;28;20215;-80
2022/05/13 01:58:26;;;;;;;10.15;4.80;;;12.30;99.90;;;;;;5046345;28;20248;-80
2022/05/13 02:00:56;;;;;;;10.48;5.13;;;12.30;99.90;;;;;;5053036;28;20244;-80
2022/05/13 02:06:09;;;;;;;8.90;6.22;;;12.20;99.90;;;;;;5055273;28;20252;-80
2022/05/13 02:08:36;;;;;;;7.65;5.57;;;12.20;99.90;;;;;;5054208;28;20222;-80
2022/05/13 02:11:05;;;;;;;8.23;5.07;;;12.20;99.90;;;;;;5050568;28;20234;-79
2022/05/13 02:13:33;;;;;;;5.57;4.82;;;12.20;99.90;;;;;;5043495;28;20233;-80
2022/05/13 02:16:00;;;;;;;14.98;5.40;;;12.20;99.90;;;;;;5050361;28;20200;-81
2022/05/13 02:18:27;;;;;;;6.18;4.88;;;12.10;99.90;;;;;;5045781;28;20207;-80
2022/05/13 02:20:55;;;;;;;8.63;4.57;;;12.20;99.90;;;;;;5044570;28;20270;-80
2022/05/13 02:23:23;;;;;;;7.75;4.00;;;12.10;99.90;;;;;;5040901;28;20642;-80
2022/05/13 02:25:51;;;;;;;6.25;5.30;;;12.10;99.90;;;;;;5044470;28;20209;-79
2022/05/13 02:28:19;;;;;;;5.95;4.68;;;12.00;99.90;;;;;;5042943;28;20664;-80
2022/05/13 02:30:46;;;;;;;4.80;4.28;;;12.00;99.90;;;;;;5037284;28;20239;-80
2022/05/13 02:33:13;;;;;;;8.68;5.15;;;12.00;99.90;;;;;;5042845;28;20231;-80
2022/05/13 02:35:40;;;;;;;7.45;4.95;;;12.00;99.90;;;;;;5042260;28;20661;-79
2022/05/13 02:38:07;;;;;;;9.60;5.70;;;12.10;99.90;;;;;;5043269;28;20235;-80
2022/05/13 02:43:20;;;;;;;8.82;4.78;;;11.90;99.90;;;;;;5052821;28;20205;-80
2022/05/13 02:45:46;;;;;;;6.30;4.20;;;11.90;99.90;;;;;;5053772;28;20219;-80
2022/05/13 02:48:13;;;;;;;8.43;5.32;;;12.00;99.90;;;;;;5042710;28;20282;-80
2022/05/13 02:50:40;;;;;;;8.85;4.10;;;11.90;99.90;;;;;;5047838;28;20232;-80
2022/05/13 02:53:08;;;;;;;5.45;4.65;;;11.70;99.90;;;;;;5035815;28;20625;-79
2022/05/13 02:55:35;;;;;;;7.55;4.53;;;11.70;99.90;;;;;;5048894;28;20281;-79
2022/05/13 02:58:02;;;;;;;7.15;5.25;;;11.70;99.90;;;;;;5064029;28;20237;-79
2022/05/13 03:00:30;;;;;;;8.77;4.80;;;11.70;99.90;;;;;;5059543;28;20221;-79
2022/05/13 03:02:57;;;;;;;10.05;4.65;;;11.70;99.90;;;;;;5034375;28;20232;-79
2022/05/13 03:05:25;;;;;;;9.52;5.82;;;11.70;99.90;;;;;;5043397;28;20218;-79
2022/05/13 03:07:52;;;;;;;7.07;4.20;;;11.70;99.90;;;;;;5050399;28;20233;-80
2022/05/13 03:10:19;;;;;;;6.78;4.07;;;11.80;99.90;;;;;;5052327;28;20196;-80
2022/05/13 03:12:46;;;;;;;7.05;4.57;;;11.90;99.90;;;;;;5049921;28;20295;-79
2022/05/13 03:15:14;;;;;;;7.60;5.63;;;12.00;99.90;;;;;;5049734;28;20209;-80
2022/05/13 03:17:42;;;;;;;6.43;3.80;;;12.00;99.90;;;;;;5046919;28;20272;-80
2022/05/13 03:20:12;;;;;;;7.55;4.30;;;12.10;99.90;;;;;;5056545;28;20213;-80
2022/05/13 03:22:39;;;;;;;7.35;4.28;;;12.20;99.90;;;;;;5051155;28;20259;-79
2022/05/13 03:25:07;;;;;;;6.15;4.93;;;12.20;99.90;;;;;;5051845;28;20221;-79
2022/05/13 03:27:34;;;;;;;7.20;4.50;;;12.20;99.90;;;;;;5050912;28;20245;-80
2022/05/13 03:30:01;;;;;;;5.55;4.18;;;12.20;99.90;;;;;;5063366;28;20193;-79
2022/05/13 03:32:28;;;;;;;6.93;3.70;;;12.30;99.90;;;;;;5056886;28;20225;-80
2022/05/13 03:34:56;;;;;;;9.85;4.32;;;12.20;99.90;;;;;;5056615;28;20214;-78
2022/05/13 03:37:23;;;;;;;4.45;3.80;;;12.30;99.90;;;;;;5051912;28;20218;-79
2022/05/13 03:39:50;;;;;;;8.95;3.95;;;12.30;99.90;;;;;;5059987;28;20259;-79
2022/05/13 03:42:17;;;;;;;8.85;4.35;;;12.20;99.90;;;;;;5047716;28;20254;-79
2022/05/13 03:44:44;;;;;;;5.60;3.70;;;12.20;99.90;;;;;;5055864;28;20187;-79
2022/05/13 03:47:10;;;;;;;6.07;4.03;;;12.30;99.90;;;;;;5058198;28;20215;-78
2022/05/13 03:49:37;;;;;;;7.20;4.28;;;12.30;99.90;;;;;;5057547;28;20218;-79
2022/05/13 03:52:06;;;;;;;5.45;4.32;;;12.30;99.90;;;;;;5057797;28;20233;-79
2022/05/13 03:54:33;;;;;;;6.65;3.83;;;12.40;99.90;;;;;;5058353;28;20189;-80
2022/05/13 03:57:00;;;;;;;6.60;4.00;;;12.40;99.90;;;;;;5058384;28;20235;-79
2022/05/13 03:59:37;;;;;;;5.47;3.40;;;12.50;99.90;;;;;;5057465;28;20238;-79
2022/05/13 04:02:05;;;;;;;7.00;4.13;;;12.50;99.90;;;;;;5058344;28;20175;-80
2022/05/13 04:08:56;;;;;;;4.97;3.85;;;12.50;99.90;;;;;;5058398;28;20202;-79
2022/05/13 04:10:05;;;;;;;7.22;3.95;;;12.50;99.90;;;;;;5050113;28;20218;-81
2022/05/13 04:18:01;;;;;;;6.63;4.40;;;12.50;99.90;;;;;;5050860;28;20605;-80
2022/05/13 04:20:28;;;;;;;6.03;3.80;;;12.50;99.90;;;;;;5060333;28;20277;-80
2022/05/13 04:22:56;;;;;;;7.00;4.32;;;12.50;99.90;;;;;;5053466;28;20214;-80
2022/05/13 04:25:23;;;;;;;7.50;4.80;;;12.50;99.90;;;;;;5047324;28;20265;-79
2022/05/13 04:27:50;;;;;;;7.28;4.20;;;12.60;99.90;;;;;;5052260;28;20282;-79
2022/05/13 04:30:18;;;;;;;5.00;3.58;;;12.60;99.90;;;;;;5050036;28;20204;-79
2022/05/13 04:32:45;;;;;;;5.03;4.00;;;12.60;99.90;;;;;;5043864;28;20231;-79
2022/05/13 04:35:11;;;;;;;11.07;5.75;;;12.60;99.90;;;;;;5043778;28;20864;-79
2022/05/13 04:37:39;;;;;;;5.05;3.60;;;12.50;99.90;;;;;;5044200;28;20318;-81
2022/05/13 04:40:08;;;;;;;5.65;4.53;;;12.50;99.90;;;;;;5043793;28;20265;-80
2022/05/13 04:42:49;;;;;;;5.38;3.95;;;12.60;99.90;;;;;;5049728;28;20208;-78
2022/05/13 04:45:19;;;;;;;10.57;4.28;;;12.60;99.90;;;;;;5045386;28;20215;-80
2022/05/13 04:50:26;;;;;;;7.75;4.85;;;12.50;99.90;;;;;;5034711;28;20213;-80
2022/05/13 04:52:53;;;;;;;5.53;4.80;;;12.50;99.90;;;;;;5052270;28;20228;-81
2022/05/13 04:55:21;;;;;;;10.60;3.88;;;12.50;99.90;;;;;;5044568;28;20205;-80
2022/05/13 04:57:48;;;;;;;6.60;3.90;;;12.50;99.90;;;;;;5044257;28;20241;-81
2022/05/13 05:00:16;;;;;;;8.23;3.60;;;12.50;99.90;;;;;;5043460;28;20286;-79
2022/05/13 05:02:43;;;;;;;9.40;5.35;;;12.60;99.90;;;;;;5044643;28;20266;-80
2022/05/13 05:05:10;;;;;;;4.00;3.42;;;12.60;99.90;;;;;;5043315;28;20212;-80
2022/05/13 05:07:37;;;;;;;4.53;3.78;;;12.60;99.90;;;;;;5045032;28;20283;-79
2022/05/13 05:10:04;;;;;;;4.25;3.70;;;12.70;99.90;;;;;;5045784;28;20208;-81
2022/05/13 05:12:32;;;;;;;4.57;3.85;;;12.70;99.90;;;;;;5045180;28;20288;-80
2022/05/13 05:14:59;;;;;;;5.43;4.18;;;12.80;99.90;;;;;;5056507;28;20289;-81
2022/05/13 05:17:26;;;;;;;7.20;4.00;;;12.70;99.90;;;;;;5045256;28;20282;-80
2022/05/13 05:19:53;;;;;;;9.55;3.60;;;12.80;99.90;;;;;;5044530;28;20289;-80
2022/05/13 05:22:20;;;;;;;9.02;3.80;;;12.80;99.90;;;;;;5046068;28;20290;-79
2022/05/13 05:24:47;;;;;;;4.95;3.55;;;12.90;99.90;;;;;;5044899;28;20297;-80
2022/05/13 05:27:14;;;;;;;5.05;3.75;;;12.70;99.90;;;;;;5054604;28;20247;-80
2022/05/13 05:29:44;;;;;;;7.53;4.07;;;12.70;99.90;;;;;;5046381;28;20207;-80
2022/05/13 05:32:11;;;;;;;7.10;3.67;;;12.80;99.90;;;;;;5046622;28;20199;-79
2022/05/13 05:34:39;;;;;;;3.97;3.58;;;12.70;99.90;;;;;;5050009;28;20211;-80
2022/05/13 05:37:06;;;;;;;9.93;3.75;;;12.60;99.90;;;;;;5049385;28;20254;-82
2022/05/13 05:39:34;;;;;;;6.68;3.67;;;12.60;99.90;;;;;;5048767;28;20240;-81
2022/05/13 05:42:01;;;;;;;7.03;3.85;;;12.60;99.90;;;;;;5047223;28;20210;-79
2022/05/13 05:44:28;;;;;;;6.05;4.22;;;12.70;99.90;;;;;;5057102;28;20205;-81
2022/05/13 05:46:58;;;;;;;8.60;4.32;;;12.70;99.90;;;;;;5049901;28;20221;-80
2022/05/13 05:49:24;;;;;;;12.77;5.15;;;12.90;99.90;;;;;;5050368;28;20199;-80
2022/05/13 05:51:51;;;;;;;7.10;4.32;;;13.00;99.90;;;;;;5044037;28;20294;-80
2022/05/13 05:57:15;;;;;;;9.27;4.53;;;13.30;99.90;;;;;;5043477;28;20229;-80
2022/05/13 05:59:42;;;;;;;8.65;3.90;;;13.30;99.90;;;;;;5044897;28;20262;-80
2022/05/13 06:02:11;;;;;;;10.70;5.07;;;13.30;99.90;;;;;;5048465;28;20224;-80
2022/05/13 06:04:38;;;;;;;8.93;4.38;;;13.30;99.90;;;;;;5052106;28;20271;-81
2022/05/13 06:07:07;;;;;;;7.65;3.88;;;13.30;99.90;;;;;;5049712;28;20227;-80
2022/05/13 06:09:34;;;;;;;6.82;3.78;;;13.20;99.90;;;;;;5047013;28;20215;-80
2022/05/13 06:12:01;;;;;;;7.45;4.05;;;13.30;99.90;;;;;;5047034;28;20207;-81
2022/05/13 06:14:28;;;;;;;5.75;3.70;;;13.40;99.90;;;;;;5048164;28;20229;-80
2022/05/13 06:16:55;;;;;;;5.68;4.57;;;13.50;99.90;;;;;;5050210;28;20231;-79
2022/05/13 06:19:23;;;;;;;12.73;4.95;;;13.50;99.90;;;;;;5042365;28;20212;-81
2022/05/13 06:21:51;;;;;;;7.72;3.50;;;13.40;99.90;;;;;;5044988;28;20242;-80
2022/05/13 06:24:19;;;;;;;7.97;4.40;;;13.50;99.90;;;;;;5047278;28;20259;-80
2022/05/13 06:26:46;;;;;;;15.63;4.13;;;13.50;99.90;;;;;;5055140;28;20246;-82
2022/05/13 06:29:13;;;;;;;9.52;3.53;;;13.50;99.90;;;;;;5052099;28;20279;-80
2022/05/13 06:31:40;;;;;;;17.70;4.00;;;13.40;99.90;;;;;;5042446;28;20207;-80
2022/05/13 06:34:07;;;;;;;7.68;3.85;;;13.50;99.90;;;;;;5046885;28;20298;-80
2022/05/13 06:36:36;;;;;;;7.60;4.80;;;13.60;99.90;;;;;;5047610;28;20242;-80
2022/05/13 06:39:04;;;;;;;13.55;4.18;;;13.60;99.90;;;;;;5045393;28;20239;-79
2022/05/13 06:41:31;;;;;;;8.73;3.55;;;13.60;99.90;;;;;;5046188;28;20251;-80
2022/05/13 06:43:59;;;;;;;9.93;3.63;;;13.60;99.90;;;;;;5047808;28;20224;-79
2022/05/13 06:46:25;;;;;;;12.25;4.43;;;13.60;99.90;;;;;;5047180;28;20318;-79
2022/05/13 06:48:52;;;;;;;7.88;4.18;;;13.50;99.90;;;;;;5044572;28;20238;-80
2022/05/13 06:51:19;;;;;;;12.60;4.20;;;13.50;99.90;;;;;;5049894;28;20208;-79
2022/05/13 06:53:47;;;;;;;13.63;4.18;;;13.50;99.90;;;;;;5054050;28;20223;-80
2022/05/13 06:56:15;;;;;;;8.60;3.70;;;13.60;99.90;;;;;;5050935;28;20233;-80
2022/05/13 06:58:41;;;;;;;9.23;3.60;;;13.60;99.90;;;;;;5046800;28;20233;-80
2022/05/13 07:01:08;;;;;;;8.15;3.35;;;13.70;99.90;;;;;;5056792;28;20295;-80
2022/05/13 07:03:35;;;;;;;12.43;3.72;;;13.70;99.90;;;;;;5055155;28;20220;-79
2022/05/13 07:06:02;;;;;;;11.02;3.83;;;13.80;99.90;;;;;;5053246;28;20255;-79
2022/05/13 07:08:30;;;;;;;5.95;3.20;;;13.80;99.90;;;;;;5058549;28;20212;-81
2022/05/13 07:11:02;;;;;;;8.20;3.90;;;13.90;99.90;;;;;;5048315;28;20611;-81
2022/05/13 07:13:28;;;;;;;7.90;4.10;;;14.00;99.90;;;;;;5043859;28;20223;-80
2022/05/13 07:15:59;;;;;;;6.72;4.03;;;14.10;99.90;;;;;;5047299;28;20214;-79
2022/05/13 07:18:26;;;;;;;17.38;4.10;;;14.30;99.90;;;;;;5043339;28;20212;-80
2022/05/13 07:20:52;;;;;;;14.45;3.70;;;14.40;99.90;;;;;;5042911;28;20214;-80
2022/05/13 07:23:20;;;;;;;9.13;5.00;;;14.30;99.90;;;;;;5045448;28;20572;-80
2022/05/13 07:25:47;;;;;;;10.02;3.88;;;14.40;99.90;;;;;;5046697;28;20658;-80
2022/05/13 07:28:15;;;;;;;7.93;3.75;;;14.40;99.90;;;;;;5042497;28;20296;-80
2022/05/13 07:30:42;;;;;;;10.23;4.30;;;14.50;99.90;;;;;;5041265;28;20291;-80
2022/05/13 07:33:08;;;;;;;22.88;5.13;;;14.50;99.90;;;;;;5042437;28;20281;-81
2022/05/13 07:35:35;;;;;;;15.13;4.30;;;14.60;99.90;;;;;;5042207;28;20235;-80
2022/05/13 07:38:02;;;;;;;13.23;4.47;;;14.50;99.90;;;;;;5043217;28;20248;-80
2022/05/13 07:43:15;;;;;;;13.55;3.75;;;14.60;99.90;;;;;;5048391;28;20215;-80
2022/05/13 07:45:42;;;;;;;5.45;3.20;;;14.60;99.90;;;;;;5055735;28;20283;-81
2022/05/13 07:48:09;;;;;;;13.35;4.00;;;14.60;99.90;;;;;;5046517;28;20422;-81
2022/05/13 07:50:36;;;;;;;10.07;3.63;;;14.80;99.90;;;;;;5045799;28;20290;-81
2022/05/13 07:53:03;;;;;;;13.35;4.47;;;15.10;99.90;;;;;;5042035;28;20236;-82
2022/05/13 07:55:30;;;;;;;6.60;4.47;;;15.10;99.90;;;;;;5054958;28;20201;-79
2022/05/13 07:57:57;;;;;;;8.82;3.83;;;15.20;99.90;;;;;;5055098;28;20295;-80
2022/05/13 08:00:29;;;;;;;38.72;6.72;;;15.30;99.90;;;;;;5056138;28;20200;-80
2022/05/13 08:02:59;;;;;;;14.48;4.55;;;15.40;99.90;;;;;;5044812;28;20200;-80
2022/05/13 08:05:27;;;;;;;10.82;4.22;;;15.70;99.90;;;;;;5035319;28;20219;-81
2022/05/13 08:08:02;;;;;;;15.32;4.30;;;16.10;99.90;;;;;;5053248;28;20255;-81
2022/05/13 08:10:30;;;;;;;10.55;4.30;;;16.00;99.90;;;;;;5044553;28;20298;-79
2022/05/13 08:12:57;;;;;;;6.95;3.35;;;16.10;99.90;;;;;;5045458;28;20290;-80
2022/05/13 08:15:25;;;;;;;8.60;4.22;;;16.10;99.90;;;;;;5046794;28;20229;-80
2022/05/13 08:17:52;;;;;;;11.30;3.50;;;16.30;99.90;;;;;;5046725;28;20217;-79
2022/05/13 08:20:20;;;;;;;14.60;3.97;;;16.50;99.90;;;;;;5054153;28;20266;-81
2022/05/13 08:22:46;;;;;;;8.63;4.47;;;17.00;99.90;;;;;;5044794;28;20203;-81
2022/05/13 08:25:13;;;;;;;8.83;4.30;;;18.10;99.90;;;;;;5045585;28;20479;-81
2022/05/13 08:27:41;;;;;;;9.30;4.60;;;18.90;99.90;;;;;;5042890;28;20471;-80
2022/05/13 08:30:10;;;;;;;15.40;3.90;;;19.60;98.00;;;;;;5043594;28;20454;-81
2022/05/13 08:32:38;;;;;;;12.60;4.43;;;19.70;95.30;;;;;;5045720;28;20878;-80
2022/05/13 08:35:06;;;;;;;8.27;4.20;;;19.60;95.10;;;;;;5049240;28;20544;-80
2022/05/13 08:37:39;;;;;;;8.20;3.20;;;19.30;94.80;;;;;;5043599;28;20522;-81
2022/05/13 08:40:07;;;;;;;9.60;3.70;;;19.50;95.20;;;;;;5042041;28;20493;-80
2022/05/13 08:42:42;;;;;;;12.63;3.40;;;19.80;94.70;;;;;;5048927;28;20481;-79
2022/05/13 08:45:11;;;;;;;6.47;4.63;;;19.50;94.40;;;;;;5048729;28;20499;-81
2022/05/13 08:47:49;;;;;;;16.30;5.03;;;19.60;94.70;;;;;;5044995;28;20482;-79
2022/05/13 08:50:21;;;;;;;7.47;3.80;;;19.90;94.60;;;;;;5041851;28;20527;-79
2022/05/13 08:53:08;;;;;;;9.80;4.03;;;20.30;94.10;;;;;;5042413;28;20552;-79
2022/05/13 08:55:39;;;;;;;9.20;3.93;;;20.50;92.50;;;;;;5045366;28;20939;-82
2022/05/13 08:58:12;;;;;;;10.47;3.90;;;20.30;91.90;;;;;;5048734;28;20503;-80
2022/05/13 09:00:42;;;;;;;6.63;3.30;;;20.10;91.90;;;;;;5049291;28;20450;-80
2022/05/13 09:03:26;;;;;;;11.60;4.30;;;20.50;92.10;;;;;;5045079;28;20435;-79
2022/05/13 09:06:01;;;;;;;11.83;3.93;;;21.50;91.20;;;;;;5043005;28;20455;-79
2022/05/13 09:08:28;;;;;;;5.40;3.30;;;22.40;88.80;;;;;;5043483;28;20450;-80
2022/05/13 09:11:12;;;;;;;8.07;3.23;;;22.50;86.60;;;;;;5040466;28;20464;-81
2022/05/13 09:13:51;;;;;;;5.17;2.70;;;22.60;85.50;;;;;;5034141;28;20496;-81
2022/05/13 09:16:25;;;;;;;8.13;3.10;;;22.70;84.10;;;;;;5044471;28;20585;-80
2022/05/13 09:19:02;;;;;;;6.77;3.03;;;22.30;83.50;;;;;;5044478;28;20871;-80
2022/05/13 09:21:28;;;;;;;6.50;2.40;;;21.90;85.00;;;;;;5037453;28;20510;-80
2022/05/13 09:23:56;;;;;;;4.23;2.60;;;21.60;86.20;;;;;;5044350;28;20445;-80
2022/05/13 09:26:24;;;;;;;5.60;2.10;;;21.70;86.00;;;;;;5044177;28;20473;-80
2022/05/13 09:29:08;;;;;;;6.07;2.30;;;21.80;85.90;;;;;;5051872;28;20517;-81
2022/05/13 09:31:38;;;;;;;5.90;2.47;;;21.60;83.50;;;;;;5045686;28;20561;-81
2022/05/13 09:34:18;;;;;;;6.13;2.73;;;21.50;84.70;;;;;;5044864;28;20493;-80
2022/05/13 09:36:44;;;;;;;7.20;2.30;;;21.60;85.90;;;;;;5049952;28;20484;-80
2022/05/13 09:39:21;;;;;;;5.23;2.40;;;22.30;84.30;;;;;;5057257;28;20458;-81
2022/05/13 09:41:52;;;;;;;5.30;2.53;;;22.90;81.50;;;;;;5059417;28;20473;-80
2022/05/13 09:44:21;;;;;;;8.67;2.50;;;22.60;80.30;;;;;;5044876;28;20442;-79
2022/05/13 09:46:51;;;;;;;7.83;3.13;;;21.80;80.90;;;;;;5052150;28;20817;-81
2022/05/13 09:49:28;;;;;;;6.70;3.03;;;21.60;82.80;;;;;;5053352;28;20446;-82
2022/05/13 09:51:57;;;;;;;10.03;2.30;;;21.50;82.80;;;;;;5057140;28;20454;-81
2022/05/13 09:54:27;;;;;;;6.10;2.67;;;21.30;83.80;;;;;;5053292;28;20482;-80
2022/05/13 09:57:03;;;;;;;4.20;1.90;;;21.30;84.70;;;;;;5056601;28;20462;-80
2022/05/13 09:59:34;;;;;;;7.53;2.53;;;21.70;82.80;;;;;;5053285;28;20536;-81
2022/05/13 10:02:20;;;;;;;5.17;2.33;;;22.50;81.30;;;;;;5067320;28;20431;-81
2022/05/13 10:04:53;;;;;;;6.60;3.30;;;22.50;79.30;;;;;;5053470;28;20450;-81
2022/05/13 10:07:21;;;;;;;4.83;3.20;;;22.40;79.90;;;;;;5052176;28;20494;-80
2022/05/13 10:15:31;;;;;;;5.07;2.13;;;21.10;82.70;;;;;;5050109;28;20484;-80
2022/05/13 10:18:06;;;;;;;5.60;2.40;;;20.40;83.70;;;;;;5049392;28;20518;-82
2022/05/13 10:20:39;;;;;;;4.97;2.10;;;19.90;85.10;;;;;;5045979;28;20537;-80
2022/05/13 10:23:11;;;;;;;3.90;1.80;;;19.60;86.20;;;;;;5044421;28;20960;-80
2022/05/13 10:25:52;;;;;;;5.47;1.90;;;19.50;85.80;;;;;;5043874;28;20539;-82
2022/05/13 10:28:22;;;;;;;5.87;2.40;;;19.40;86.80;;;;;;5046203;28;20478;-80
2022/05/13 10:30:52;;;;;;;6.03;3.70;;;19.40;87.10;;;;;;5044254;28;20515;-80
2022/05/13 10:33:26;;;;;;;5.77;1.63;;;19.50;86.90;;;;;;5049465;28;20478;-80
2022/05/13 10:35:59;;;;;;;5.33;2.13;;;19.30;86.60;;;;;;5045619;28;20486;-81
2022/05/13 10:38:31;;;;;;;5.90;1.97;;;19.10;86.50;;;;;;5043107;28;20920;-80
2022/05/13 10:41:10;;;;;;;7.30;1.80;;;18.80;87.10;;;;;;5058224;28;20435;-80
2022/05/13 10:43:45;;;;;;;7.30;2.53;;;18.70;87.40;;;;;;5050192;28;20458;-79
2022/05/13 10:46:22;;;;;;;6.57;2.50;;;18.40;88.90;;;;;;5062310;28;20454;-81
2022/05/13 10:48:54;;;;;;;3.83;1.57;;;18.30;90.00;;;;;;5039942;28;20455;-80
2022/05/13 10:51:28;;;;;;;4.90;1.70;;;18.30;90.30;;;;;;5050231;28;20450;-81
2022/05/13 10:54:15;;;;;;;5.20;1.90;;;18.70;90.30;;;;;;5045546;28;20450;-80
2022/05/13 10:56:48;;;;;;;5.60;2.40;;;19.20;90.00;;;;;;5057315;28;20491;-81
2022/05/13 10:59:30;;;;;;;10.17;2.63;;;19.50;89.50;;;;;;5046032;28;20486;-79
2022/05/13 11:02:07;;;;;;;5.77;2.00;;;19.90;87.90;;;;;;5055066;28;20494;-79
2022/05/13 11:04:41;;;;;;;4.50;1.90;;;19.90;87.10;;;;;;5058325;28;20447;-80
2022/05/13 11:07:18;;;;;;;6.80;3.13;;;20.30;87.40;;;;;;5058008;28;20529;-79
2022/05/13 11:09:50;;;;;;;5.23;2.30;;;20.90;85.80;;;;;;5058252;28;20504;-80
2022/05/13 11:12:28;;;;;;;4.53;2.30;;;20.90;85.10;;;;;;5058509;28;20471;-80
2022/05/13 11:15:15;;;;;;;6.17;2.33;;;20.80;84.80;;;;;;5058029;28;20552;-81
2022/05/13 11:17:50;;;;;;;8.70;2.03;;;20.60;85.00;;;;;;5058036;28;20452;-79
2022/05/13 11:20:25;;;;;;;11.87;2.43;;;20.50;85.10;;;;;;5057902;28;20454;-79
2022/05/13 11:23:05;;;;;;;3.70;2.20;;;20.50;85.40;;;;;;5058261;28;20458;-80
2022/05/13 11:25:57;;;;;;;3.57;1.30;;;20.70;84.80;;;;;;5051429;28;20459;-80
2022/05/13 11:28:55;;;;;;;2.50;1.57;;;20.90;84.40;;;;;;5052650;28;20455;-80
2022/05/13 11:31:40;;;;;;;6.50;2.10;;;21.00;83.80;;;;;;5030836;28;20878;-80
2022/05/13 11:34:21;;;;;;;8.13;1.73;;;20.90;83.80;;;;;;5058823;28;20491;-79
2022/05/13 11:36:55;;;;;;;3.03;1.83;;;20.80;83.70;;;;;;5049734;28;20962;-82
2022/05/13 11:39:39;;;;;;;9.43;2.23;;;20.60;84.50;;;;;;5042679;28;20514;-81
2022/05/13 11:42:30;;;;;;;9.60;2.87;;;20.20;85.30;;;;;;5047511;28;20490;-80
2022/05/13 11:45:14;;;;;;;4.17;1.53;;;20.10;84.50;;;;;;5054209;28;20465;-80
2022/05/13 11:47:56;;;;;;;2.30;1.33;;;20.10;83.70;;;;;;5047660;28;20502;-81
2022/05/13 11:50:23;;;;;;;5.40;2.27;;;20.40;83.70;;;;;;5036021;28;20453;-81
2022/05/13 11:52:53;;;;;;;6.23;1.70;;;20.50;83.40;;;;;;5042386;28;20454;-81
2022/05/13 11:55:45;;;;;;;6.47;2.27;;;20.70;83.40;;;;;;5041698;28;20464;-79
2022/05/13 11:58:49;;;;;;;5.30;1.53;;;20.80;83.20;;;;;;5042183;28;20475;-80
2022/05/13 12:02:06;;;;;;;3.77;1.40;;;21.10;82.70;;;;;;5043251;28;20456;-80
2022/05/13 12:04:36;;;;;;;5.83;2.00;;;21.20;82.10;;;;;;4994919;28;20617;-79
2022/05/13 12:07:29;;;;;;;7.30;2.03;;;21.40;82.20;;;;;;5042188;28;20498;-80
2022/05/13 12:09:58;;;;;;;3.90;1.43;;;21.40;81.60;;;;;;5039057;28;20434;-81
2022/05/13 12:12:40;;;;;;;5.63;2.00;;;20.90;81.00;;;;;;5045213;28;20442;-80
2022/05/13 12:15:22;;;;;;;6.93;1.93;;;20.70;81.90;;;;;;5052135;28;20475;-81
2022/05/13 12:17:59;;;;;;;2.70;1.50;;;20.30;83.10;;;;;;5046143;28;20838;-81
2022/05/13 12:20:37;;;;;;;3.27;1.43;;;20.00;83.90;;;;;;5045425;28;20452;-80
2022/05/13 12:23:13;;;;;;;2.90;1.40;;;19.80;84.60;;;;;;5055034;28;20433;-80
2022/05/13 12:25:51;;;;;;;2.20;1.77;;;20.20;84.20;;;;;;5059398;28;20486;-79
2022/05/13 12:28:31;;;;;;;3.63;1.30;;;20.20;83.20;;;;;;5051060;28;20443;-79
2022/05/13 12:31:00;;;;;;;8.63;1.87;;;20.50;83.20;;;;;;5042923;28;20506;-81
2022/05/13 12:33:38;;;;;;;7.97;1.90;;;20.70;82.20;;;;;;5042161;28;20438;-82
2022/05/13 12:39:09;;;;;;;5.80;1.63;;;21.20;81.40;;;;;;5044668;28;20525;-81
2022/05/13 12:41:55;;;;;;;4.60;1.30;;;21.20;80.90;;;;;;5048469;28;20447;-81
2022/05/13 12:44:36;;;;;;;5.23;1.20;;;21.20;81.20;;;;;;5031361;28;20912;-81
2022/05/13 12:47:27;;;;;;;3.00;1.13;;;21.00;80.70;;;;;;5042964;28;20498;-81
2022/05/13 12:50:19;;;;;;;4.23;1.57;;;20.90;80.80;;;;;;5043200;28;20439;-79
2022/05/13 12:52:46;;;;;;;3.73;2.10;;;20.60;81.40;;;;;;5049052;28;20490;-81
2022/05/13 12:55:19;;;;;;;5.27;1.70;;;20.50;81.70;;;;;;5049894;28;20633;-81
2022/05/13 12:57:49;;;;;;;5.17;1.93;;;20.70;82.20;;;;;;5057978;28;20474;-80
2022/05/13 13:00:20;;;;;;;2.37;1.10;;;20.70;82.30;;;;;;5050087;28;20478;-80
2022/05/13 13:02:52;;;;;;;3.50;1.20;;;20.70;82.00;;;;;;5053446;28;20459;-81
2022/05/13 13:05:24;;;;;;;4.63;1.13;;;20.90;81.90;;;;;;5050973;28;20442;-81
2022/05/13 13:07:54;;;;;;;10.20;4.30;;;21.10;82.00;;;;;;5052252;28;20467;-81
2022/05/13 13:10:22;;;;;;;4.27;1.40;;;21.30;81.60;;;;;;5049118;28;20570;-81
2022/05/13 13:13:00;;;;;;;2.60;1.43;;;21.30;80.00;;;;;;5053661;28;20484;-81
2022/05/13 13:15:33;;;;;;;3.87;1.50;;;21.00;79.20;;;;;;5054926;28;20817;-81
2022/05/13 13:18:06;;;;;;;6.43;1.83;;;20.90;80.10;;;;;;5058009;28;20465;-81
2022/05/13 13:20:45;;;;;;;5.47;1.50;;;20.80;80.40;;;;;;5053420;28;20449;-81
2022/05/13 13:23:14;;;;;;;2.50;1.30;;;20.60;80.70;;;;;;5057158;28;20464;-81
2022/05/13 13:25:44;;;;;;;3.07;1.23;;;20.80;81.50;;;;;;5058339;28;20490;-82
2022/05/13 13:28:12;;;;;;;5.30;2.00;;;20.70;81.10;;;;;;5059784;28;20523;-80
2022/05/13 13:30:43;;;;;;;2.57;1.37;;;20.80;81.00;;;;;;5059456;28;20448;-81
2022/05/13 13:33:12;;;;;;;5.13;1.40;;;20.80;81.00;;;;;;5060021;28;20548;-80
2022/05/13 13:35:41;;;;;;;2.90;1.60;;;21.00;81.20;;;;;;5060093;28;20500;-80